createdAt,value
2019-04-23T00:00:48.491Z,48.80
2019-04-23T00:03:13.793Z,48.40
2019-04-23T00:08:19.692Z,48.50
2019-04-23T00:10:49.803Z,48.50
2019-04-23T00:13:12.974Z,49.10
2019-04-23T00:16:21.864Z,49.10
2019-04-23T00:18:36.836Z,49.30
2019-04-23T00:21:15.542Z,49.80
2019-04-23T00:23:53.143Z,50.00
2019-04-23T00:26:24.072Z,50.60
2019-04-23T00:28:51.932Z,50.70
2019-04-23T00:31:20.840Z,51.10
2019-04-23T00:33:44.828Z,51.20
2019-04-23T00:36:23.045Z,51.10
2019-04-23T00:38:45.194Z,51.30
2019-04-23T00:41:15.959Z,51.50
2019-04-23T00:43:51.367Z,51.70
2019-04-23T00:46:18.982Z,52.00
2019-04-23T00:48:51.556Z,51.90
2019-04-23T00:51:20.622Z,52.10
2019-04-23T00:53:44.209Z,52.50
2019-04-23T00:56:34.053Z,53.00
2019-04-23T00:58:47.754Z,53.60
2019-04-23T01:01:20.788Z,53.90
2019-04-23T01:03:48.556Z,54.50
2019-04-23T01:06:22.405Z,55.00
2019-04-23T01:08:45.542Z,55.00
2019-04-23T01:11:18.146Z,54.90
2019-04-23T01:13:51.180Z,55.20
2019-04-23T01:16:18.119Z,55.30
2019-04-23T01:18:54.570Z,55.30
2019-04-23T01:21:11.687Z,55.00
2019-04-23T01:24:06.185Z,55.00
2019-04-23T01:27:24.149Z,55.30
2019-04-23T01:29:42.521Z,55.60
2019-04-23T01:32:15.817Z,56.00
2019-04-23T01:34:49.956Z,56.50
2019-04-23T01:37:11.033Z,56.70
2019-04-23T01:39:43.885Z,56.90
2019-04-23T01:42:22.238Z,57.40
2019-04-23T01:47:17.283Z,58.00
2019-04-23T01:49:54.667Z,58.20
2019-04-23T01:52:23.342Z,58.30
2019-04-23T01:54:45.761Z,58.30
2019-04-23T01:57:21.494Z,58.10
2019-04-23T01:59:48.116Z,58.30
2019-04-23T02:02:19.455Z,58.60
2019-04-23T02:04:46.014Z,58.90
2019-04-23T02:07:11.407Z,59.00
2019-04-23T02:09:48.211Z,59.20
2019-04-23T02:12:22.833Z,59.40
2019-04-23T02:14:43.316Z,59.80
2019-04-23T02:17:16.043Z,60.10
2019-04-23T02:19:47.988Z,60.40
2019-04-23T02:24:54.524Z,60.80
2019-04-23T02:27:29.590Z,60.50
2019-04-23T02:32:30.839Z,60.60
2019-04-23T02:35:09.972Z,60.70
2019-04-23T02:37:35.259Z,61.00
2019-04-23T02:40:23.854Z,61.10
2019-04-23T02:42:40.993Z,61.90
2019-04-23T02:44:53.976Z,62.10
2019-04-23T02:50:12.742Z,62.80
2019-04-23T02:57:33.418Z,63.00
2019-04-23T03:02:37.242Z,62.80
2019-04-23T03:05:18.891Z,62.90
2019-04-23T03:07:36.732Z,62.70
2019-04-23T03:10:03.271Z,62.70
2019-04-23T03:12:31.727Z,62.80
2019-04-23T03:15:13.261Z,62.90
2019-04-23T03:17:57.563Z,63.30
2019-04-23T03:23:29.047Z,63.60
2019-04-23T03:26:04.317Z,64.20
2019-04-23T03:28:31.364Z,62.80
2019-04-23T03:49:01.240Z,62.50
2019-04-23T03:51:09.060Z,62.80
2019-04-23T03:53:58.011Z,62.70
2019-04-23T03:58:44.875Z,62.80
2019-04-23T04:06:33.720Z,62.50
2019-04-23T04:08:47.400Z,62.50
2019-04-23T04:16:07.435Z,62.90
2019-04-23T04:18:46.004Z,63.30
2019-04-23T04:21:22.456Z,63.30
2019-04-23T04:26:13.190Z,63.60
2019-04-23T04:28:48.608Z,63.00
2019-04-23T04:31:16.647Z,62.00
2019-04-23T04:44:02.496Z,55.60
2019-04-23T04:46:28.058Z,54.20
2019-04-23T04:58:47.542Z,52.10
2019-04-23T05:03:54.989Z,54.30
2019-04-23T05:13:47.477Z,58.00
2019-04-23T05:16:15.963Z,54.90
2019-04-23T05:19:08.513Z,49.80
2019-04-23T05:21:14.120Z,48.50
2019-04-23T05:23:42.922Z,46.60
2019-04-23T05:26:15.431Z,44.00
2019-04-23T05:28:52.035Z,42.80
2019-04-23T05:31:15.792Z,41.20
2019-04-23T05:33:49.370Z,39.90
2019-04-23T05:36:20.162Z,40.00
2019-04-23T05:38:51.111Z,38.90
2019-04-23T05:41:19.925Z,40.60
2019-04-23T05:43:46.882Z,40.20
2019-04-23T05:46:23.237Z,38.80
2019-04-23T05:48:49.293Z,37.50
2019-04-23T05:53:46.945Z,35.80
2019-04-23T05:56:13.210Z,34.30
2019-04-23T05:58:45.667Z,33.90
2019-04-23T06:01:32.216Z,32.80
2019-04-23T06:03:58.235Z,34.10
2019-04-23T06:06:20.808Z,35.00
2019-04-23T06:11:28.495Z,38.40
2019-04-23T06:14:03.482Z,40.90
2019-04-23T06:16:31.351Z,39.10
2019-04-23T06:18:57.633Z,39.00
2019-04-23T06:21:24.083Z,41.10
2019-04-23T06:23:51.789Z,40.70
2019-04-23T06:26:33.116Z,40.40
2019-04-23T06:28:50.513Z,39.60
2019-04-23T06:31:24.497Z,39.00
2019-04-23T06:33:54.341Z,39.10
2019-04-23T06:36:25.645Z,39.20
2019-04-23T06:39:04.349Z,39.20
2019-04-23T06:41:23.427Z,38.30
2019-04-23T06:44:06.072Z,41.30
2019-04-23T06:46:28.626Z,40.00
2019-04-23T06:48:57.437Z,40.70
2019-04-23T06:51:27.169Z,40.70
2019-04-23T06:54:00.880Z,40.60
2019-04-23T06:56:26.441Z,42.60
2019-04-23T06:59:00.843Z,41.50
2019-04-23T07:01:29.924Z,41.60
2019-04-23T07:03:57.085Z,40.60
2019-04-23T07:13:57.693Z,37.60
2019-04-23T07:16:22.838Z,39.00
2019-04-23T07:18:54.571Z,37.40
2019-04-23T07:21:22.170Z,38.40
2019-04-23T07:24:00.282Z,39.20
2019-04-23T07:26:33.961Z,39.90
2019-04-23T07:29:07.453Z,40.10
2019-04-23T07:31:44.587Z,39.10
2019-04-23T07:33:59.635Z,38.60
2019-04-23T07:36:32.676Z,38.20
2019-04-23T07:39:01.165Z,39.20
2019-04-23T07:41:47.899Z,39.40
2019-04-23T07:47:21.710Z,40.60
2019-04-23T07:49:57.104Z,40.60
2019-04-23T07:54:52.563Z,39.00
2019-04-23T07:57:21.890Z,40.10
2019-04-23T07:59:50.217Z,40.00
2019-04-23T08:02:19.395Z,40.30
2019-04-23T08:05:04.785Z,41.50
2019-04-23T08:07:23.143Z,43.00
2019-04-23T08:10:00.275Z,41.30
2019-04-23T08:12:27.415Z,40.00
2019-04-23T08:14:53.584Z,39.40
2019-04-23T08:17:19.045Z,39.60
2019-04-23T08:27:24.094Z,39.40
2019-04-23T08:29:55.776Z,39.80
2019-04-23T08:32:49.261Z,40.00
2019-04-23T08:35:01.225Z,41.90
2019-04-23T08:37:36.464Z,44.50
2019-04-23T08:39:52.152Z,44.40
2019-04-23T08:42:39.666Z,46.00
2019-04-23T08:45:21.810Z,46.20
2019-04-23T08:48:00.692Z,45.70
2019-04-23T08:50:27.475Z,45.70
2019-04-23T08:53:07.026Z,46.10
2019-04-23T08:55:32.643Z,47.00
2019-04-23T08:57:52.066Z,47.40
2019-04-23T09:00:31.420Z,46.80
2019-04-23T09:03:00.494Z,47.50
2019-04-23T09:08:01.531Z,47.80
2019-04-23T09:10:29.782Z,48.20
2019-04-23T09:13:09.356Z,47.40
2019-04-23T09:15:31.020Z,46.60
2019-04-23T09:17:57.677Z,47.60
2019-04-23T09:20:27.703Z,47.30
2019-04-23T09:22:50.307Z,47.30
2019-04-23T09:27:59.751Z,46.90
2019-04-23T09:30:26.959Z,47.30
2019-04-23T09:33:00.705Z,47.10
2019-04-23T09:35:42.730Z,46.90
2019-04-23T09:38:25.197Z,46.60
2019-04-23T09:43:38.544Z,46.70
2019-04-23T09:46:21.609Z,47.20
2019-04-23T09:48:54.210Z,46.10
2019-04-23T09:51:17.859Z,46.20
2019-04-23T09:53:44.453Z,46.80
2019-04-23T09:56:14.842Z,46.40
2019-04-23T09:58:41.542Z,46.70
2019-04-23T10:03:49.361Z,46.70
2019-04-23T10:06:10.588Z,46.20
2019-04-23T10:08:38.207Z,46.80
2019-04-23T10:11:05.134Z,46.70
2019-04-23T10:13:34.393Z,45.40
2019-04-23T10:16:04.434Z,46.00
2019-04-23T10:18:33.212Z,46.80
2019-04-23T10:21:01.664Z,46.50
2019-04-23T10:23:31.454Z,46.80
2019-04-23T10:25:59.948Z,45.80
2019-04-23T10:28:35.908Z,45.40
2019-04-23T10:31:04.883Z,46.80
2019-04-23T10:33:34.354Z,45.50
2019-04-23T10:36:08.865Z,46.60
2019-04-23T10:38:34.647Z,46.90
2019-04-23T10:41:04.303Z,45.90
2019-04-23T10:43:36.834Z,46.00
2019-04-23T10:46:31.143Z,46.50
2019-04-23T10:52:02.600Z,45.50
2019-04-23T10:56:53.758Z,46.00
2019-04-23T11:07:19.122Z,45.60
2019-04-23T11:09:49.643Z,45.50
2019-04-23T11:12:23.681Z,45.10
2019-04-23T11:14:55.257Z,44.70
2019-04-23T11:17:19.465Z,43.80
2019-04-23T11:19:54.519Z,44.30
2019-04-23T11:27:24.286Z,45.90
2019-04-23T11:29:48.677Z,45.50
2019-04-23T11:32:42.888Z,45.40
2019-04-23T11:35:04.926Z,45.70
2019-04-23T11:37:23.445Z,45.30
2019-04-23T11:39:46.048Z,45.10
2019-04-23T11:44:49.487Z,43.80
2019-04-23T11:47:44.181Z,46.00
2019-04-23T11:49:52.632Z,45.20
2019-04-23T11:52:23.725Z,42.60
2019-04-23T11:54:43.571Z,43.60
2019-04-23T11:59:47.116Z,43.70
2019-04-23T12:02:35.565Z,43.40
2019-04-23T12:05:05.857Z,43.40
2019-04-23T12:07:34.350Z,44.00
2019-04-23T12:10:17.142Z,43.60
2019-04-23T12:15:27.024Z,43.70
2019-04-23T12:17:50.691Z,43.70
2019-04-23T12:20:27.180Z,44.60
2019-04-23T12:25:26.724Z,44.30
2019-04-23T12:27:39.043Z,44.90
2019-04-23T12:30:25.307Z,44.00
2019-04-23T12:37:55.180Z,44.30
2019-04-23T12:43:12.709Z,44.30
2019-04-23T12:45:33.417Z,44.00
2019-04-23T12:52:51.193Z,44.10
2019-04-23T12:55:31.934Z,42.90
2019-04-23T12:57:52.231Z,43.50
2019-04-23T13:00:28.830Z,43.30
2019-04-23T13:07:53.463Z,44.80
2019-04-23T13:17:55.521Z,43.30
2019-04-23T13:20:27.321Z,41.30
2019-04-23T13:25:36.679Z,42.20
2019-04-23T13:33:08.041Z,42.30
2019-04-23T13:35:53.335Z,42.50
2019-04-23T13:38:09.335Z,42.80
2019-04-23T13:43:13.950Z,40.80
2019-04-23T13:48:06.813Z,40.80
2019-04-23T13:50:42.135Z,42.00
2019-04-23T13:53:18.103Z,41.50
2019-04-23T13:55:35.949Z,41.80
2019-04-23T13:58:18.525Z,42.80
2019-04-23T14:03:04.467Z,41.50
2019-04-23T14:05:47.017Z,42.80
2019-04-23T14:08:31.063Z,42.60
2019-04-23T14:10:48.077Z,43.20
2019-04-23T14:15:54.074Z,42.80
2019-04-23T14:21:06.569Z,43.80
2019-04-23T14:26:01.590Z,42.70
2019-04-23T14:28:23.307Z,43.50
2019-04-23T14:33:24.876Z,44.20
2019-04-23T14:35:45.333Z,42.50
2019-04-23T14:38:30.633Z,43.10
2019-04-23T14:40:56.074Z,43.80
2019-04-23T14:43:34.903Z,43.70
2019-04-23T14:46:16.793Z,43.70
2019-04-23T14:48:31.413Z,44.30
2019-04-23T14:50:51.947Z,43.90
2019-04-23T14:53:18.215Z,43.50
2019-04-23T14:55:57.187Z,44.10
2019-04-23T15:01:12.781Z,44.50
2019-04-23T15:03:27.257Z,44.40
2019-04-23T15:06:06.750Z,43.60
2019-04-23T15:08:24.997Z,43.90
2019-04-23T15:11:08.238Z,43.60
2019-04-23T15:13:24.256Z,44.30
2019-04-23T15:16:04.413Z,45.70
2019-04-23T15:18:24.729Z,45.10
2019-04-23T15:23:51.496Z,45.00
2019-04-23T15:27:02.280Z,45.40
2019-04-23T15:28:17.782Z,44.60
2019-04-23T15:31:19.142Z,45.20
2019-04-23T15:41:21.338Z,45.70
2019-04-23T15:43:41.176Z,45.30
2019-04-23T15:46:24.091Z,46.40
2019-04-23T15:48:44.671Z,46.00
2019-04-23T15:51:20.146Z,45.90
2019-04-23T15:53:44.629Z,45.50
2019-04-23T15:56:18.508Z,44.80
2019-04-23T15:58:56.194Z,45.30
2019-04-23T16:01:21.419Z,45.70
2019-04-23T16:03:19.732Z,45.70
2019-04-23T16:05:46.883Z,45.60
2019-04-23T16:08:51.414Z,45.20
2019-04-23T16:11:26.445Z,45.70
2019-04-23T16:14:04.304Z,45.30
2019-04-23T16:16:14.324Z,46.00
2019-04-23T16:18:58.977Z,45.80
2019-04-23T16:21:35.837Z,46.00
2019-04-23T16:24:07.492Z,45.30
2019-04-23T16:26:32.341Z,45.70
2019-04-23T16:34:17.776Z,46.50
2019-04-23T16:36:38.634Z,46.00
2019-04-23T16:39:07.568Z,46.10
2019-04-23T16:41:42.330Z,46.20
2019-04-23T16:44:16.445Z,45.80
2019-04-23T16:46:39.161Z,46.40
2019-04-23T16:49:15.296Z,46.20
2019-04-23T16:51:38.864Z,46.50
2019-04-23T16:54:10.480Z,46.10
2019-04-23T16:56:55.225Z,46.10
2019-04-23T16:59:13.498Z,46.60
2019-04-23T17:01:34.520Z,46.80
2019-04-23T17:04:24.472Z,46.40
2019-04-23T17:06:36.718Z,46.90
2019-04-23T17:09:15.720Z,47.40
2019-04-23T17:11:34.280Z,47.10
2019-04-23T17:14:09.879Z,47.50
2019-04-23T17:19:11.322Z,47.10
2019-04-23T17:21:36.859Z,47.50
2019-04-23T17:24:14.562Z,47.40
2019-04-23T17:26:38.945Z,47.80
2019-04-23T17:31:45.520Z,47.60
2019-04-23T17:34:21.701Z,48.00
2019-04-23T17:36:38.560Z,47.90
2019-04-23T17:42:12.471Z,48.40
2019-04-23T17:47:12.009Z,48.80
2019-04-23T17:49:35.108Z,48.60
2019-04-23T17:52:17.135Z,49.00
2019-04-23T17:57:11.821Z,49.00
2019-04-23T18:02:40.153Z,49.60
2019-04-23T18:04:56.657Z,49.60
2019-04-23T18:07:32.225Z,49.90
2019-04-23T18:09:58.525Z,49.90
2019-04-23T18:12:31.156Z,49.80
2019-04-23T18:14:47.660Z,50.00
2019-04-23T18:17:37.810Z,50.30
2019-04-23T18:19:58.259Z,49.90
2019-04-23T18:22:29.479Z,50.10
2019-04-23T18:25:08.510Z,50.20
2019-04-23T18:27:40.917Z,50.20
2019-04-23T18:30:07.921Z,50.30
2019-04-23T18:35:29.695Z,50.40
2019-04-23T18:37:56.481Z,50.60
2019-04-23T18:40:36.676Z,50.90
2019-04-23T18:43:08.849Z,50.90
2019-04-23T18:45:39.019Z,50.60
2019-04-23T18:48:35.408Z,50.80
2019-04-23T18:53:26.795Z,50.90
2019-04-23T18:56:05.521Z,51.00
2019-04-23T18:58:22.379Z,51.10
2019-04-23T19:00:57.048Z,51.20
2019-04-23T19:03:29.701Z,51.10
2019-04-23T19:11:37.121Z,51.30
2019-04-23T19:13:47.832Z,51.50
2019-04-23T19:16:24.474Z,51.50
2019-04-23T19:18:56.279Z,51.40
2019-04-23T19:23:51.116Z,51.60
2019-04-23T19:26:48.670Z,51.60
2019-04-23T19:28:56.052Z,51.60
2019-04-23T19:31:42.738Z,51.50
2019-04-23T19:34:14.468Z,51.60
2019-04-23T19:39:13.244Z,52.10
2019-04-23T19:41:52.507Z,52.30
2019-04-23T19:46:49.168Z,52.60
2019-04-23T19:51:42.822Z,53.00
2019-04-23T19:56:45.106Z,53.50
2019-04-23T19:59:01.859Z,53.60
2019-04-23T20:01:37.665Z,53.50
2019-04-23T20:04:04.397Z,54.40
2019-04-23T20:06:58.533Z,53.90
2019-04-23T20:11:47.708Z,54.20
2019-04-23T20:13:55.610Z,54.40
2019-04-23T20:16:50.300Z,54.70
2019-04-23T20:19:03.149Z,54.80
2019-04-23T20:21:45.055Z,54.90
2019-04-23T20:31:39.364Z,55.00
2019-04-23T20:34:28.516Z,55.20
2019-04-23T20:36:51.346Z,55.50
2019-04-23T20:39:21.287Z,55.60
2019-04-23T20:49:47.134Z,56.20
2019-04-23T20:54:56.876Z,56.10
2019-04-23T21:05:09.893Z,56.30
2019-04-23T21:10:18.244Z,56.50
2019-04-23T21:15:12.071Z,56.80
2019-04-23T21:20:16.242Z,56.70
2019-04-23T21:22:41.148Z,56.60
2019-04-23T21:25:14.520Z,56.60
2019-04-23T21:30:55.359Z,56.90
2019-04-23T21:33:11.580Z,57.30
2019-04-23T21:36:10.847Z,57.30
2019-04-23T21:44:08.234Z,57.70
2019-04-23T21:54:00.025Z,58.10
2019-04-23T21:56:30.256Z,58.50
2019-04-23T21:59:06.576Z,58.60
2019-04-23T22:01:36.628Z,58.60
2019-04-23T22:06:38.849Z,59.00
2019-04-23T22:09:08.680Z,58.90
2019-04-23T22:11:51.036Z,59.20
2019-04-23T22:16:37.323Z,59.50
2019-04-23T22:19:10.544Z,59.90
2019-04-23T22:21:44.447Z,60.00
2019-04-23T22:34:17.319Z,60.00
2019-04-23T22:36:29.207Z,59.80
2019-04-23T22:39:03.263Z,59.40
2019-04-23T22:41:37.997Z,59.20
2019-04-23T22:44:07.267Z,59.10
2019-04-23T22:49:18.257Z,59.00
2019-04-23T22:51:41.970Z,58.80
2019-04-23T22:54:03.737Z,58.60
2019-04-23T22:56:43.939Z,58.40
2019-04-23T22:59:27.894Z,58.30
2019-04-23T23:04:15.155Z,58.30
2019-04-23T23:06:54.071Z,58.20
2019-04-23T23:11:42.870Z,58.90
2019-04-23T23:14:12.213Z,59.00
2019-04-23T23:16:35.955Z,59.30
2019-04-23T23:19:14.907Z,59.20
2019-04-23T23:21:53.121Z,59.10
2019-04-23T23:24:09.639Z,59.10
2019-04-23T23:26:40.740Z,59.30
2019-04-23T23:29:06.185Z,59.50
2019-04-23T23:31:42.282Z,59.90
2019-04-23T23:34:10.113Z,60.80
2019-04-23T23:36:51.474Z,61.00
2019-04-23T23:39:16.257Z,61.30
2019-04-23T23:41:46.660Z,61.30
2019-04-23T23:44:38.513Z,61.60
2019-04-23T23:49:13.852Z,62.10
2019-04-23T23:51:40.264Z,62.40
2019-04-23T23:54:08.440Z,62.30
2019-04-23T23:56:39.158Z,62.80
2019-04-23T23:59:16.138Z,62.80
